Terminal Aerodrome Forecast
Issued by NWS Wilmington, OH

Current Version | Previous Version | Graphics & Text | Print | Product List | Glossary On
Versions: 1 2 3 4 5 6 7 8 9 10 11 12 13 14 15 16 17
000
FTUS41 KILN 040400 AAA
TAFDAY
TAF AMD
KDAY 040421Z 0404/0424 35004KT 4SM BR VCSH BKN035
     FM041300 35005KT P6SM SKC
     FM041800 32006KT P6SM SCT050=

USA.gov is the U.S. government's official web portal to all federal, state and local government web resources and services.